Mumbai Express — V2AH1 — position and weather

sailwx.info

Track history (hours):
 
Tides and Currents Weather Stations Pressure Air Temp Water Temp Dewpoint Dewpoint Depression Visibility Wind Speed Wind Dir Waves Ship Positions

Mumbai Express

Last reported at 2014-Jul-18 15:06 UTC. Time now 2014-Jul-23 23:44 UTC.
Position S 33°58' E 018°06'.

Length 260.7 m; beam 32.3 m; draft 12.5 m.

Type: Ship. MMSI: 304010914.

Date/timePositionNaut miles runAvg speedWind from/ knotsBaromVisibWave heightAir tempDewpointWater temp
2014-Jul-18 15:06S 33°58' E 018°06'2 3.8
2014-Jul-18 14:31S 34°00' E 018°07'1 0.7
2014-Jul-18 13:30S 34°00' E 018°08'1 0.6
2014-Jul-18 12:13S 33°60' E 018°08'3 3.4
2014-Jul-18 11:14S 33°59' E 018°12'2 2.1
2014-Jul-18 10:22S 33°59' E 018°10'2 2.2
2014-Jul-18 09:27S 33°58' E 018°08'2 1.8
2014-Jul-18 08:31S 33°59' E 018°10'2 1.8
2014-Jul-18 07:20S 33°59' E 018°12'2 2.3
2014-Jul-18 06:29S 33°58' E 018°10'1 0.6
2014-Jul-18 04:19S 33°59' E 018°11'3 1.0
2014-Jul-18 01:18S 34°02' E 018°11'3 4.2
2014-Jul-18 00:30S 34°02' E 018°07'9 1.2
2014-Jul-17 16:28S 33°53' E 018°05'2 1.2
2014-Jul-17 14:32S 33°54' E 018°07'1 1.2
2014-Jul-17 13:27S 33°54' E 018°09'6 2.7
2014-Jul-17 11:21S 33°53' E 018°15'3 2.6
2014-Jul-17 10:13S 33°51' E 018°12'1 1.2
2014-Jul-17 09:24S 33°51' E 018°11'3 3.2
2014-Jul-17 08:30S 33°53' E 018°13'2 1.7
2014-Jul-17 07:21S 33°53' E 018°11'1 1.1
2014-Jul-17 06:30S 33°53' E 018°10'4 3.4
2014-Jul-17 05:17S 33°57' E 018°13'710.0
2014-Jul-17 04:33S 34°04' E 018°15'1812.7
2014-Jul-17 03:07S 34°22' E 018°18'813.4
2014-Jul-17 02:33S 34°28' E 018°24'1313.2
2014-Jul-17 01:34S 34°38' E 018°34'1413.1
2014-Jul-17 00:30S 34°47' E 018°47'1312.9
2014-Jul-16 23:30S 34°50' E 019°02'4213.5
2014-Jul-16 20:22S 35°00' E 019°52'1212.7
2014-Jul-16 19:23S 35°02' E 020°07'1212.9
2014-Jul-16 18:28S 35°01' E 020°21'36313.4
2014-Jul-15 15:26S 33°32' E 027°28'4314.6
2014-Jul-15 12:28S 33°04' E 028°07'21816.9
2014-Jul-14 23:33S 30°19' E 030°54'1515.1
2014-Jul-14 22:33S 30°05' E 031°02'1414.2
2014-Jul-14 21:33S 29°51' E 031°06'4 3.6
2014-Jul-14 20:22S 29°53' E 031°01'0 0.0
2014-Jul-14 19:33S 29°53' E 031°01'0 0.0
2014-Jul-14 18:33S 29°53' E 031°01'0 0.0
2014-Jul-14 17:32S 29°53' E 031°01'0 0.0
2014-Jul-14 16:32S 29°53' E 031°01'0 0.0
2014-Jul-14 15:32S 29°53' E 031°01'0 0.0
2014-Jul-14 14:25S 29°53' E 031°01'0 0.0
2014-Jul-14 13:31S 29°53' E 031°01'0 0.0
2014-Jul-14 12:30S 29°53' E 031°01'0 0.0
2014-Jul-14 11:30S 29°53' E 031°01'0 0.0
2014-Jul-14 10:29S 29°53' E 031°01'0 0.0
2014-Jul-14 09:29S 29°53' E 031°01'0 0.0
2014-Jul-14 08:29S 29°53' E 031°01'0 0.0
2014-Jul-14 07:28S 29°53' E 031°01'0 0.0
2014-Jul-14 06:28S 29°53' E 031°01'0 0.0
2014-Jul-14 05:33S 29°53' E 031°01'0 0.0
2014-Jul-14 04:33S 29°53' E 031°01'0 0.0
2014-Jul-14 03:32S 29°53' E 031°01'0 0.0
2014-Jul-14 02:20S 29°53' E 031°01'0 0.0
2014-Jul-14 01:26S 29°53' E 031°01'0 0.0
2014-Jul-14 00:31S 29°53' E 031°01'0 0.0
2014-Jul-13 23:31S 29°53' E 031°01'0 0.0
2014-Jul-13 22:18S 29°53' E 031°01'0 0.0
2014-Jul-13 21:30S 29°53' E 031°01'0 0.0
2014-Jul-13 20:23S 29°53' E 031°01'0 0.0
2014-Jul-13 19:29S 29°53' E 031°01'0 0.0
2014-Jul-13 18:22S 29°53' E 031°01'0 0.0
2014-Jul-13 17:28S 29°53' E 031°01'0 0.0
2014-Jul-13 16:28S 29°53' E 031°01'0 0.0
2014-Jul-13 15:33S 29°53' E 031°01'0 0.0
2014-Jul-13 14:33S 29°53' E 031°01'0 0.0
2014-Jul-13 13:26S 29°53' E 031°01'0 0.0
2014-Jul-13 12:32S 29°53' E 031°01'0 0.0
2014-Jul-13 11:25S 29°53' E 031°01'0 0.0
2014-Jul-13 10:25S 29°53' E 031°01'0 0.0
2014-Jul-13 09:31S 29°53' E 031°01'0 0.0
2014-Jul-13 08:24S 29°53' E 031°01'0 0.0
2014-Jul-13 07:30S 29°53' E 031°01'0 0.0
2014-Jul-13 06:23S 29°53' E 031°01'0 0.0
2014-Jul-13 05:29S 29°53' E 031°01'0 0.0
2014-Jul-13 04:28S 29°53' E 031°01'0 0.0
2014-Jul-13 03:22S 29°53' E 031°01'0 0.0
2014-Jul-13 02:28S 29°53' E 031°01'0 0.0
2014-Jul-13 01:27S 29°53' E 031°01'0 0.0
2014-Jul-13 00:33S 29°53' E 031°01'0 0.0
2014-Jul-12 23:32S 29°53' E 031°01'0 0.0
2014-Jul-12 22:32S 29°53' E 031°01'0 0.0
2014-Jul-12 21:31S 29°53' E 031°01'0 0.0
2014-Jul-12 20:31S 29°53' E 031°01'0 0.0
2014-Jul-12 19:31S 29°53' E 031°01'0 0.0
2014-Jul-12 18:30S 29°53' E 031°01'0 0.0
2014-Jul-12 17:30S 29°53' E 031°01'0 0.0
2014-Jul-12 16:23S 29°53' E 031°01'0 0.0
2014-Jul-12 15:29S 29°53' E 031°01'0 0.0
2014-Jul-12 14:22S 29°53' E 031°01'0 0.0
2014-Jul-12 13:28S 29°53' E 031°01'0 0.0
2014-Jul-12 12:28S 29°53' E 031°01'0 0.0
2014-Jul-12 11:33S 29°53' E 031°01'0 0.0
2014-Jul-12 10:33S 29°53' E 031°01'0 0.0
2014-Jul-12 09:32S 29°53' E 031°01'0 0.0
2014-Jul-12 08:32S 29°53' E 031°01'0 0.0
2014-Jul-12 07:31S 29°53' E 031°01'0 0.0
2014-Jul-12 06:25S 29°53' E 031°01'0 0.0
2014-Jul-12 05:31S 29°53' E 031°01'0 0.0
2014-Jul-12 04:32S 29°53' E 031°01'0 0.0
2014-Jul-12 03:30S 29°53' E 031°01'0 0.0
2014-Jul-12 02:29S 29°53' E 031°01'0 0.0
2014-Jul-12 01:29S 29°53' E 031°01'0 0.0
2014-Jul-12 00:28S 29°53' E 031°01'0 0.0
2014-Jul-11 23:28S 29°53' E 031°01'0 0.0
2014-Jul-11 22:28S 29°53' E 031°01'0 0.0
2014-Jul-11 21:33S 29°53' E 031°01'0 0.0
2014-Jul-11 20:33S 29°53' E 031°01'0 0.0
2014-Jul-11 19:32S 29°53' E 031°01'0 0.0
2014-Jul-11 18:32S 29°53' E 031°01'0 0.0
2014-Jul-11 17:31S 29°53' E 031°01'0 0.0
2014-Jul-11 16:31S 29°53' E 031°01'0 0.0
2014-Jul-11 15:24S 29°53' E 031°01'0 0.0
2014-Jul-11 14:30S 29°53' E 031°01'1 1.3
2014-Jul-11 13:33S 29°53' E 031°03'6 6.0
2014-Jul-11 12:33S 29°48' E 031°08'1 1.2
2014-Jul-11 11:33S 29°48' E 031°09'1 0.9
2014-Jul-11 10:33S 29°48' E 031°10'1 0.5
2014-Jul-11 09:32S 29°47' E 031°10'0 0.0
2014-Jul-11 08:31S 29°47' E 031°10'0 0.1
2014-Jul-11 07:31S 29°47' E 031°10'0 0.1
2014-Jul-11 06:30S 29°47' E 031°10'0 0.1
2014-Jul-11 05:30S 29°47' E 031°10'0 0.1
2014-Jul-11 04:29S 29°47' E 031°10'0 0.0
2014-Jul-11 03:29S 29°47' E 031°10'0 0.0
2014-Jul-11 02:29S 29°47' E 031°10'0 0.1
2014-Jul-11 01:28S 29°47' E 031°10'0 0.2
2014-Jul-11 00:28S 29°47' E 031°10'0 0.0
2014-Jul-10 23:33S 29°47' E 031°10'0 0.1
2014-Jul-10 22:33S 29°47' E 031°10'0 0.0
2014-Jul-10 21:33S 29°47' E 031°10'0 0.0
2014-Jul-10 20:32S 29°47' E 031°10'0 0.0
2014-Jul-10 19:32S 29°47' E 031°10'0 0.0
2014-Jul-10 18:31S 29°47' E 031°10'0 0.0
2014-Jul-10 17:31S 29°47' E 031°10'0 0.0
2014-Jul-10 16:24S 29°47' E 031°10'0 0.0
2014-Jul-10 15:18S 29°47' E 031°10'0 0.0
2014-Jul-10 14:29S 29°47' E 031°10'0 0.0
2014-Jul-10 13:29S 29°47' E 031°10'0 0.0
2014-Jul-10 12:29S 29°47' E 031°10'0 0.0
2014-Jul-10 11:28S 29°47' E 031°10'0 0.0
2014-Jul-10 10:22S 29°47' E 031°10'0 0.1
2014-Jul-10 09:33S 29°47' E 031°10'0 0.0
2014-Jul-10 08:21S 29°47' E 031°10'0 0.0
2014-Jul-10 07:32S 29°47' E 031°10'0 0.0
2014-Jul-10 06:32S 29°47' E 031°10'0 0.0
2014-Jul-10 05:26S 29°47' E 031°10'0 0.0
2014-Jul-10 04:31S 29°47' E 031°10'0 0.0
2014-Jul-10 03:31S 29°47' E 031°10'0 0.0
2014-Jul-10 02:24S 29°47' E 031°10'0 0.0
2014-Jul-10 01:30S 29°47' E 031°10'0 0.0
2014-Jul-10 00:17S 29°47' E 031°10'0 0.0
2014-Jul-09 23:29S 29°47' E 031°10'0 0.0
2014-Jul-09 22:29S 29°47' E 031°10'0 0.0
2014-Jul-09 21:28S 29°47' E 031°10'0 0.0
2014-Jul-09 20:28S 29°47' E 031°10'0 0.0
2014-Jul-09 19:33S 29°47' E 031°10'0 0.0
2014-Jul-09 18:33S 29°47' E 031°10'0 0.1
2014-Jul-09 17:26S 29°47' E 031°10'0 0.0
2014-Jul-09 16:32S 29°47' E 031°10'0 0.0
2014-Jul-09 15:26S 29°47' E 031°10'0 0.0
2014-Jul-09 14:31S 29°47' E 031°10'0 0.0
2014-Jul-09 13:31S 29°47' E 031°10'0 0.0
2014-Jul-09 12:30S 29°47' E 031°10'0 0.0
2014-Jul-09 11:30S 29°47' E 031°10'0 0.0
2014-Jul-09 10:29S 29°47' E 031°10'0 0.0
2014-Jul-09 09:29S 29°47' E 031°10'0 0.1
2014-Jul-09 08:22S 29°47' E 031°10'0 0.0
2014-Jul-09 07:28S 29°47' E 031°10'0 0.0
2014-Jul-09 06:22S 29°47' E 031°10'0 0.0
2014-Jul-09 05:33S 29°47' E 031°10'0 0.0
2014-Jul-09 04:33S 29°47' E 031°10'0 0.0
2014-Jul-09 03:32S 29°47' E 031°10'0 0.0
2014-Jul-09 02:32S 29°47' E 031°10'0 0.0
2014-Jul-09 01:31S 29°47' E 031°10'0 0.0
2014-Jul-09 00:31S 29°47' E 031°10'0 0.0
2014-Jul-08 23:31S 29°47' E 031°10'0 0.0
2014-Jul-08 22:30S 29°47' E 031°10'0 0.0
2014-Jul-08 21:30S 29°47' E 031°10'0 0.0
2014-Jul-08 20:29S 29°47' E 031°10'0 0.1
2014-Jul-08 19:33S 29°47' E 031°10'18 7.5
2014-Jul-08 17:07S 30°04' E 031°01'5 9.7
2014-Jul-08 16:33S 30°09' E 030°59'10 9.9
2014-Jul-08 15:33S 30°18' E 030°54'  
Track history (hours):
 
Tides and Currents Weather Stations Pressure Air Temp Water Temp Dewpoint Dewpoint Depression Visibility Wind Speed Wind Dir Waves Ship Positions

Mumbai Express

Last reported at 2014-Jul-18 15:06 UTC. Time now 2014-Jul-23 23:44 UTC.
Position S 33°58' E 018°06'.

Length 260.7 m; beam 32.3 m; draft 12.5 m.

Type: Ship. MMSI: 304010914.

Date/timePositionNaut miles runAvg speedWind from/ knotsBaromVisibWave heightAir tempDewpointWater temp
2014-Jul-18 15:06S 33°58' E 018°06'2 3.8
2014-Jul-18 14:31S 34°00' E 018°07'1 0.7
2014-Jul-18 13:30S 34°00' E 018°08'1 0.6
2014-Jul-18 12:13S 33°60' E 018°08'3 3.4
2014-Jul-18 11:14S 33°59' E 018°12'2 2.1
2014-Jul-18 10:22S 33°59' E 018°10'2 2.2
2014-Jul-18 09:27S 33°58' E 018°08'2 1.8
2014-Jul-18 08:31S 33°59' E 018°10'2 1.8
2014-Jul-18 07:20S 33°59' E 018°12'2 2.3
2014-Jul-18 06:29S 33°58' E 018°10'1 0.6
2014-Jul-18 04:19S 33°59' E 018°11'3 1.0
2014-Jul-18 01:18S 34°02' E 018°11'3 4.2
2014-Jul-18 00:30S 34°02' E 018°07'9 1.2
2014-Jul-17 16:28S 33°53' E 018°05'2 1.2
2014-Jul-17 14:32S 33°54' E 018°07'1 1.2
2014-Jul-17 13:27S 33°54' E 018°09'6 2.7
2014-Jul-17 11:21S 33°53' E 018°15'3 2.6
2014-Jul-17 10:13S 33°51' E 018°12'1 1.2
2014-Jul-17 09:24S 33°51' E 018°11'3 3.2
2014-Jul-17 08:30S 33°53' E 018°13'2 1.7
2014-Jul-17 07:21S 33°53' E 018°11'1 1.1
2014-Jul-17 06:30S 33°53' E 018°10'4 3.4
2014-Jul-17 05:17S 33°57' E 018°13'710.0
2014-Jul-17 04:33S 34°04' E 018°15'1812.7
2014-Jul-17 03:07S 34°22' E 018°18'813.4
2014-Jul-17 02:33S 34°28' E 018°24'1313.2
2014-Jul-17 01:34S 34°38' E 018°34'1413.1
2014-Jul-17 00:30S 34°47' E 018°47'1312.9
2014-Jul-16 23:30S 34°50' E 019°02'4213.5
2014-Jul-16 20:22S 35°00' E 019°52'1212.7
2014-Jul-16 19:23S 35°02' E 020°07'1212.9
2014-Jul-16 18:28S 35°01' E 020°21'36313.4
2014-Jul-15 15:26S 33°32' E 027°28'4314.6
2014-Jul-15 12:28S 33°04' E 028°07'21816.9
2014-Jul-14 23:33S 30°19' E 030°54'1515.1
2014-Jul-14 22:33S 30°05' E 031°02'1414.2
2014-Jul-14 21:33S 29°51' E 031°06'4 3.6
2014-Jul-14 20:22S 29°53' E 031°01'0 0.0
2014-Jul-14 19:33S 29°53' E 031°01'0 0.0
2014-Jul-14 18:33S 29°53' E 031°01'0 0.0
2014-Jul-14 17:32S 29°53' E 031°01'0 0.0
2014-Jul-14 16:32S 29°53' E 031°01'0 0.0
2014-Jul-14 15:32S 29°53' E 031°01'0 0.0
2014-Jul-14 14:25S 29°53' E 031°01'0 0.0
2014-Jul-14 13:31S 29°53' E 031°01'0 0.0
2014-Jul-14 12:30S 29°53' E 031°01'0 0.0
2014-Jul-14 11:30S 29°53' E 031°01'0 0.0
2014-Jul-14 10:29S 29°53' E 031°01'0 0.0
2014-Jul-14 09:29S 29°53' E 031°01'0 0.0
2014-Jul-14 08:29S 29°53' E 031°01'0 0.0
2014-Jul-14 07:28S 29°53' E 031°01'0 0.0
2014-Jul-14 06:28S 29°53' E 031°01'0 0.0
2014-Jul-14 05:33S 29°53' E 031°01'0 0.0
2014-Jul-14 04:33S 29°53' E 031°01'0 0.0
2014-Jul-14 03:32S 29°53' E 031°01'0 0.0
2014-Jul-14 02:20S 29°53' E 031°01'0 0.0
2014-Jul-14 01:26S 29°53' E 031°01'0 0.0
2014-Jul-14 00:31S 29°53' E 031°01'0 0.0
2014-Jul-13 23:31S 29°53' E 031°01'0 0.0
2014-Jul-13 22:18S 29°53' E 031°01'0 0.0
2014-Jul-13 21:30S 29°53' E 031°01'0 0.0
2014-Jul-13 20:23S 29°53' E 031°01'0 0.0
2014-Jul-13 19:29S 29°53' E 031°01'0 0.0
2014-Jul-13 18:22S 29°53' E 031°01'0 0.0
2014-Jul-13 17:28S 29°53' E 031°01'0 0.0
2014-Jul-13 16:28S 29°53' E 031°01'0 0.0
2014-Jul-13 15:33S 29°53' E 031°01'0 0.0
2014-Jul-13 14:33S 29°53' E 031°01'0 0.0
2014-Jul-13 13:26S 29°53' E 031°01'0 0.0
2014-Jul-13 12:32S 29°53' E 031°01'0 0.0
2014-Jul-13 11:25S 29°53' E 031°01'0 0.0
2014-Jul-13 10:25S 29°53' E 031°01'0 0.0
2014-Jul-13 09:31S 29°53' E 031°01'0 0.0
2014-Jul-13 08:24S 29°53' E 031°01'0 0.0
2014-Jul-13 07:30S 29°53' E 031°01'0 0.0
2014-Jul-13 06:23S 29°53' E 031°01'0 0.0
2014-Jul-13 05:29S 29°53' E 031°01'0 0.0
2014-Jul-13 04:28S 29°53' E 031°01'0 0.0
2014-Jul-13 03:22S 29°53' E 031°01'0 0.0
2014-Jul-13 02:28S 29°53' E 031°01'0 0.0
2014-Jul-13 01:27S 29°53' E 031°01'0 0.0
2014-Jul-13 00:33S 29°53' E 031°01'0 0.0
2014-Jul-12 23:32S 29°53' E 031°01'0 0.0
2014-Jul-12 22:32S 29°53' E 031°01'0 0.0
2014-Jul-12 21:31S 29°53' E 031°01'0 0.0
2014-Jul-12 20:31S 29°53' E 031°01'0 0.0
2014-Jul-12 19:31S 29°53' E 031°01'0 0.0
2014-Jul-12 18:30S 29°53' E 031°01'0 0.0
2014-Jul-12 17:30S 29°53' E 031°01'0 0.0
2014-Jul-12 16:23S 29°53' E 031°01'0 0.0
2014-Jul-12 15:29S 29°53' E 031°01'0 0.0
2014-Jul-12 14:22S 29°53' E 031°01'0 0.0
2014-Jul-12 13:28S 29°53' E 031°01'0 0.0
2014-Jul-12 12:28S 29°53' E 031°01'0 0.0
2014-Jul-12 11:33S 29°53' E 031°01'0 0.0
2014-Jul-12 10:33S 29°53' E 031°01'0 0.0
2014-Jul-12 09:32S 29°53' E 031°01'0 0.0
2014-Jul-12 08:32S 29°53' E 031°01'0 0.0
2014-Jul-12 07:31S 29°53' E 031°01'0 0.0
2014-Jul-12 06:25S 29°53' E 031°01'0 0.0
2014-Jul-12 05:31S 29°53' E 031°01'0 0.0
2014-Jul-12 04:32S 29°53' E 031°01'0 0.0
2014-Jul-12 03:30S 29°53' E 031°01'0 0.0
2014-Jul-12 02:29S 29°53' E 031°01'0 0.0
2014-Jul-12 01:29S 29°53' E 031°01'0 0.0
2014-Jul-12 00:28S 29°53' E 031°01'0 0.0
2014-Jul-11 23:28S 29°53' E 031°01'0 0.0
2014-Jul-11 22:28S 29°53' E 031°01'0 0.0
2014-Jul-11 21:33S 29°53' E 031°01'0 0.0
2014-Jul-11 20:33S 29°53' E 031°01'0 0.0
2014-Jul-11 19:32S 29°53' E 031°01'0 0.0
2014-Jul-11 18:32S 29°53' E 031°01'0 0.0
2014-Jul-11 17:31S 29°53' E 031°01'0 0.0
2014-Jul-11 16:31S 29°53' E 031°01'0 0.0
2014-Jul-11 15:24S 29°53' E 031°01'0 0.0
2014-Jul-11 14:30S 29°53' E 031°01'1 1.3
2014-Jul-11 13:33S 29°53' E 031°03'6 6.0
2014-Jul-11 12:33S 29°48' E 031°08'1 1.2
2014-Jul-11 11:33S 29°48' E 031°09'1 0.9
2014-Jul-11 10:33S 29°48' E 031°10'1 0.5
2014-Jul-11 09:32S 29°47' E 031°10'0 0.0
2014-Jul-11 08:31S 29°47' E 031°10'0 0.1
2014-Jul-11 07:31S 29°47' E 031°10'0 0.1
2014-Jul-11 06:30S 29°47' E 031°10'0 0.1
2014-Jul-11 05:30S 29°47' E 031°10'0 0.1
2014-Jul-11 04:29S 29°47' E 031°10'0 0.0
2014-Jul-11 03:29S 29°47' E 031°10'0 0.0
2014-Jul-11 02:29S 29°47' E 031°10'0 0.1
2014-Jul-11 01:28S 29°47' E 031°10'0 0.2
2014-Jul-11 00:28S 29°47' E 031°10'0 0.0
2014-Jul-10 23:33S 29°47' E 031°10'0 0.1
2014-Jul-10 22:33S 29°47' E 031°10'0 0.0
2014-Jul-10 21:33S 29°47' E 031°10'0 0.0
2014-Jul-10 20:32S 29°47' E 031°10'0 0.0
2014-Jul-10 19:32S 29°47' E 031°10'0 0.0
2014-Jul-10 18:31S 29°47' E 031°10'0 0.0
2014-Jul-10 17:31S 29°47' E 031°10'0 0.0
2014-Jul-10 16:24S 29°47' E 031°10'0 0.0
2014-Jul-10 15:18S 29°47' E 031°10'0 0.0
2014-Jul-10 14:29S 29°47' E 031°10'0 0.0
2014-Jul-10 13:29S 29°47' E 031°10'0 0.0
2014-Jul-10 12:29S 29°47' E 031°10'0 0.0
2014-Jul-10 11:28S 29°47' E 031°10'0 0.0
2014-Jul-10 10:22S 29°47' E 031°10'0 0.1
2014-Jul-10 09:33S 29°47' E 031°10'0 0.0
2014-Jul-10 08:21S 29°47' E 031°10'0 0.0
2014-Jul-10 07:32S 29°47' E 031°10'0 0.0
2014-Jul-10 06:32S 29°47' E 031°10'0 0.0
2014-Jul-10 05:26S 29°47' E 031°10'0 0.0
2014-Jul-10 04:31S 29°47' E 031°10'0 0.0
2014-Jul-10 03:31S 29°47' E 031°10'0 0.0
2014-Jul-10 02:24S 29°47' E 031°10'0 0.0
2014-Jul-10 01:30S 29°47' E 031°10'0 0.0
2014-Jul-10 00:17S 29°47' E 031°10'0 0.0
2014-Jul-09 23:29S 29°47' E 031°10'0 0.0
2014-Jul-09 22:29S 29°47' E 031°10'0 0.0
2014-Jul-09 21:28S 29°47' E 031°10'0 0.0
2014-Jul-09 20:28S 29°47' E 031°10'0 0.0
2014-Jul-09 19:33S 29°47' E 031°10'0 0.0
2014-Jul-09 18:33S 29°47' E 031°10'0 0.1
2014-Jul-09 17:26S 29°47' E 031°10'0 0.0
2014-Jul-09 16:32S 29°47' E 031°10'0 0.0
2014-Jul-09 15:26S 29°47' E 031°10'0 0.0
2014-Jul-09 14:31S 29°47' E 031°10'0 0.0
2014-Jul-09 13:31S 29°47' E 031°10'0 0.0
2014-Jul-09 12:30S 29°47' E 031°10'0 0.0
2014-Jul-09 11:30S 29°47' E 031°10'0 0.0
2014-Jul-09 10:29S 29°47' E 031°10'0 0.0
2014-Jul-09 09:29S 29°47' E 031°10'0 0.1
2014-Jul-09 08:22S 29°47' E 031°10'0 0.0
2014-Jul-09 07:28S 29°47' E 031°10'0 0.0
2014-Jul-09 06:22S 29°47' E 031°10'0 0.0
2014-Jul-09 05:33S 29°47' E 031°10'0 0.0
2014-Jul-09 04:33S 29°47' E 031°10'0 0.0
2014-Jul-09 03:32S 29°47' E 031°10'0 0.0
2014-Jul-09 02:32S 29°47' E 031°10'0 0.0
2014-Jul-09 01:31S 29°47' E 031°10'0 0.0
2014-Jul-09 00:31S 29°47' E 031°10'0 0.0
2014-Jul-08 23:31S 29°47' E 031°10'0 0.0
2014-Jul-08 22:30S 29°47' E 031°10'0 0.0
2014-Jul-08 21:30S 29°47' E 031°10'0 0.0
2014-Jul-08 20:29S 29°47' E 031°10'0 0.1
2014-Jul-08 19:33S 29°47' E 031°10'18 7.5
2014-Jul-08 17:07S 30°04' E 031°01'5 9.7
2014-Jul-08 16:33S 30°09' E 030°59'10 9.9
2014-Jul-08 15:33S 30°18' E 030°54'  

Dump ship's entire track history